sensor_id;sensor_type;location;lat;lon;timestamp;temperature;humidity
44671;DHT22;48397;53.016;-2.260;2023-04-16T00:00:35;8.70;99.90
44671;DHT22;48397;53.016;-2.260;2023-04-16T00:03:02;8.70;99.90
44671;DHT22;48397;53.016;-2.260;2023-04-16T00:05:30;8.60;99.90
44671;DHT22;48397;53.016;-2.260;2023-04-16T00:07:58;8.60;99.90
44671;DHT22;48397;53.016;-2.260;2023-04-16T00:10:25;8.60;99.90
44671;DHT22;48397;53.016;-2.260;2023-04-16T00:12:53;8.60;99.90
44671;DHT22;48397;53.016;-2.260;2023-04-16T00:15:21;8.60;99.90
44671;DHT22;48397;53.016;-2.260;2023-04-16T00:17:49;8.60;99.90
44671;DHT22;48397;53.016;-2.260;2023-04-16T00:20:17;8.60;99.90
44671;DHT22;48397;53.016;-2.260;2023-04-16T00:25:14;8.70;99.90
44671;DHT22;48397;53.016;-2.260;2023-04-16T00:27:42;8.70;99.90
44671;DHT22;48397;53.016;-2.260;2023-04-16T00:30:09;8.70;99.90
44671;DHT22;48397;53.016;-2.260;2023-04-16T00:32:37;8.60;99.90
44671;DHT22;48397;53.016;-2.260;2023-04-16T00:35:05;8.70;99.90
44671;DHT22;48397;53.016;-2.260;2023-04-16T00:37:33;8.70;99.90
44671;DHT22;48397;53.016;-2.260;2023-04-16T00:40:00;8.70;99.90
44671;DHT22;48397;53.016;-2.260;2023-04-16T00:42:28;8.70;99.90
44671;DHT22;48397;53.016;-2.260;2023-04-16T00:44:56;8.70;99.90
44671;DHT22;48397;53.016;-2.260;2023-04-16T00:47:23;8.70;99.90
44671;DHT22;48397;53.016;-2.260;2023-04-16T00:49:51;8.70;99.90
44671;DHT22;48397;53.016;-2.260;2023-04-16T00:52:19;8.70;99.90
44671;DHT22;48397;53.016;-2.260;2023-04-16T00:54:46;8.70;99.90
44671;DHT22;48397;53.016;-2.260;2023-04-16T00:57:14;8.70;99.90
44671;DHT22;48397;53.016;-2.260;2023-04-16T00:59:42;8.70;99.90
44671;DHT22;48397;53.016;-2.260;2023-04-16T01:02:10;8.70;99.90
44671;DHT22;48397;53.016;-2.260;2023-04-16T01:04:39;8.80;99.90
44671;DHT22;48397;53.016;-2.260;2023-04-16T01:07:06;8.80;99.90
44671;DHT22;48397;53.016;-2.260;2023-04-16T01:09:34;8.70;99.90
44671;DHT22;48397;53.016;-2.260;2023-04-16T01:12:02;8.70;99.90
44671;DHT22;48397;53.016;-2.260;2023-04-16T01:14:30;8.60;99.90
44671;DHT22;48397;53.016;-2.260;2023-04-16T01:17:03;8.70;99.90
44671;DHT22;48397;53.016;-2.260;2023-04-16T01:19:30;8.70;99.90
44671;DHT22;48397;53.016;-2.260;2023-04-16T01:21:58;8.70;99.90
44671;DHT22;48397;53.016;-2.260;2023-04-16T01:24:25;8.70;99.90
44671;DHT22;48397;53.016;-2.260;2023-04-16T01:26:53;8.70;99.90
44671;DHT22;48397;53.016;-2.260;2023-04-16T01:29:21;8.70;99.90
44671;DHT22;48397;53.016;-2.260;2023-04-16T01:31:49;8.70;99.90
44671;DHT22;48397;53.016;-2.260;2023-04-16T01:34:36;8.70;99.90
44671;DHT22;48397;53.016;-2.260;2023-04-16T01:37:04;8.70;99.90
44671;DHT22;48397;53.016;-2.260;2023-04-16T01:39:31;8.70;99.90
44671;DHT22;48397;53.016;-2.260;2023-04-16T01:44:27;8.70;99.90
44671;DHT22;48397;53.016;-2.260;2023-04-16T01:46:55;8.70;99.90
44671;DHT22;48397;53.016;-2.260;2023-04-16T01:49:22;8.70;99.90
44671;DHT22;48397;53.016;-2.260;2023-04-16T01:51:50;8.70;99.90
44671;DHT22;48397;53.016;-2.260;2023-04-16T01:54:18;8.70;99.90
44671;DHT22;48397;53.016;-2.260;2023-04-16T01:56:45;8.70;99.90
44671;DHT22;48397;53.016;-2.260;2023-04-16T01:59:13;8.70;99.90
44671;DHT22;48397;53.016;-2.260;2023-04-16T02:01:41;8.70;99.90
44671;DHT22;48397;53.016;-2.260;2023-04-16T02:04:09;8.60;99.90
44671;DHT22;48397;53.016;-2.260;2023-04-16T02:09:06;8.60;99.90
44671;DHT22;48397;53.016;-2.260;2023-04-16T02:11:36;8.70;99.90
44671;DHT22;48397;53.016;-2.260;2023-04-16T02:14:03;8.60;99.90
44671;DHT22;48397;53.016;-2.260;2023-04-16T02:16:31;8.70;99.90
44671;DHT22;48397;53.016;-2.260;2023-04-16T02:19:08;8.70;99.90
44671;DHT22;48397;53.016;-2.260;2023-04-16T02:21:37;8.70;99.90
44671;DHT22;48397;53.016;-2.260;2023-04-16T02:24:04;8.70;99.90
44671;DHT22;48397;53.016;-2.260;2023-04-16T02:29:06;8.70;99.90
44671;DHT22;48397;53.016;-2.260;2023-04-16T02:31:41;8.70;99.90
44671;DHT22;48397;53.016;-2.260;2023-04-16T02:34:10;8.70;99.90
44671;DHT22;48397;53.016;-2.260;2023-04-16T02:36:38;8.60;99.90
44671;DHT22;48397;53.016;-2.260;2023-04-16T02:39:05;8.60;99.90
44671;DHT22;48397;53.016;-2.260;2023-04-16T02:41:33;8.70;99.90
44671;DHT22;48397;53.016;-2.260;2023-04-16T02:46:29;8.70;99.90
44671;DHT22;48397;53.016;-2.260;2023-04-16T02:48:56;8.70;99.90
44671;DHT22;48397;53.016;-2.260;2023-04-16T02:51:24;8.70;99.90
44671;DHT22;48397;53.016;-2.260;2023-04-16T02:53:52;8.70;99.90
44671;DHT22;48397;53.016;-2.260;2023-04-16T02:56:20;8.70;99.90
44671;DHT22;48397;53.016;-2.260;2023-04-16T03:01:15;8.60;99.90
44671;DHT22;48397;53.016;-2.260;2023-04-16T03:03:44;8.60;99.90
44671;DHT22;48397;53.016;-2.260;2023-04-16T03:06:12;8.60;99.90
44671;DHT22;48397;53.016;-2.260;2023-04-16T03:11:07;8.50;99.90
44671;DHT22;48397;53.016;-2.260;2023-04-16T03:13:35;8.50;99.90
44671;DHT22;48397;53.016;-2.260;2023-04-16T03:16:03;8.60;99.90
44671;DHT22;48397;53.016;-2.260;2023-04-16T03:18:30;8.50;99.90
44671;DHT22;48397;53.016;-2.260;2023-04-16T03:20:58;8.50;99.90
44671;DHT22;48397;53.016;-2.260;2023-04-16T03:23:25;8.50;99.90
44671;DHT22;48397;53.016;-2.260;2023-04-16T03:28:22;8.50;99.90
44671;DHT22;48397;53.016;-2.260;2023-04-16T03:30:52;8.50;99.90
44671;DHT22;48397;53.016;-2.260;2023-04-16T03:33:20;8.50;99.90
44671;DHT22;48397;53.016;-2.260;2023-04-16T03:35:54;8.40;99.90
44671;DHT22;48397;53.016;-2.260;2023-04-16T03:38:24;8.40;99.90
44671;DHT22;48397;53.016;-2.260;2023-04-16T03:40:55;8.50;99.90
44671;DHT22;48397;53.016;-2.260;2023-04-16T03:43:23;8.40;99.90
44671;DHT22;48397;53.016;-2.260;2023-04-16T03:45:50;8.40;99.90
44671;DHT22;48397;53.016;-2.260;2023-04-16T03:48:21;8.30;99.90
44671;DHT22;48397;53.016;-2.260;2023-04-16T03:50:49;8.30;99.90
44671;DHT22;48397;53.016;-2.260;2023-04-16T03:53:19;8.30;99.90
44671;DHT22;48397;53.016;-2.260;2023-04-16T03:55:51;8.30;99.90
44671;DHT22;48397;53.016;-2.260;2023-04-16T03:58:20;8.30;99.90
44671;DHT22;48397;53.016;-2.260;2023-04-16T04:00:48;8.30;99.90
44671;DHT22;48397;53.016;-2.260;2023-04-16T04:03:16;8.30;99.90
44671;DHT22;48397;53.016;-2.260;2023-04-16T04:05:47;8.30;99.90
44671;DHT22;48397;53.016;-2.260;2023-04-16T04:10:48;8.20;99.90
44671;DHT22;48397;53.016;-2.260;2023-04-16T04:13:20;8.20;99.90
44671;DHT22;48397;53.016;-2.260;2023-04-16T04:15:50;8.20;99.90
44671;DHT22;48397;53.016;-2.260;2023-04-16T04:18:19;8.20;99.90
44671;DHT22;48397;53.016;-2.260;2023-04-16T04:20:46;8.20;99.90
44671;DHT22;48397;53.016;-2.260;2023-04-16T04:23:17;8.20;99.90
44671;DHT22;48397;53.016;-2.260;2023-04-16T04:25:46;8.20;99.90
44671;DHT22;48397;53.016;-2.260;2023-04-16T04:28:13;8.30;99.90
44671;DHT22;48397;53.016;-2.260;2023-04-16T04:30:41;8.20;99.90
44671;DHT22;48397;53.016;-2.260;2023-04-16T04:33:08;8.30;99.90
44671;DHT22;48397;53.016;-2.260;2023-04-16T04:35:37;8.30;99.90
44671;DHT22;48397;53.016;-2.260;2023-04-16T04:38:05;8.20;99.90
44671;DHT22;48397;53.016;-2.260;2023-04-16T04:40:33;8.20;99.90
44671;DHT22;48397;53.016;-2.260;2023-04-16T04:43:03;8.30;99.90
44671;DHT22;48397;53.016;-2.260;2023-04-16T04:45:30;8.20;99.90
44671;DHT22;48397;53.016;-2.260;2023-04-16T04:47:58;8.20;99.90
44671;DHT22;48397;53.016;-2.260;2023-04-16T04:52:54;8.30;99.90
44671;DHT22;48397;53.016;-2.260;2023-04-16T04:55:21;8.30;99.90
44671;DHT22;48397;53.016;-2.260;2023-04-16T04:57:50;8.30;99.90
44671;DHT22;48397;53.016;-2.260;2023-04-16T05:00:19;8.30;99.90
44671;DHT22;48397;53.016;-2.260;2023-04-16T05:02:52;8.30;99.90
44671;DHT22;48397;53.016;-2.260;2023-04-16T05:07:48;8.30;99.90
44671;DHT22;48397;53.016;-2.260;2023-04-16T05:10:16;8.30;99.90
44671;DHT22;48397;53.016;-2.260;2023-04-16T05:12:45;8.30;99.90
44671;DHT22;48397;53.016;-2.260;2023-04-16T05:15:15;8.30;99.90
44671;DHT22;48397;53.016;-2.260;2023-04-16T05:17:43;8.30;99.90
44671;DHT22;48397;53.016;-2.260;2023-04-16T05:22:38;8.40;99.90
44671;DHT22;48397;53.016;-2.260;2023-04-16T05:25:06;8.30;99.90
44671;DHT22;48397;53.016;-2.260;2023-04-16T05:27:34;8.50;99.90
44671;DHT22;48397;53.016;-2.260;2023-04-16T05:30:02;8.40;99.90
44671;DHT22;48397;53.016;-2.260;2023-04-16T05:34:58;8.40;99.90
44671;DHT22;48397;53.016;-2.260;2023-04-16T05:37:25;8.40;99.90
44671;DHT22;48397;53.016;-2.260;2023-04-16T05:39:53;8.40;99.90
44671;DHT22;48397;53.016;-2.260;2023-04-16T05:42:21;8.40;99.90
44671;DHT22;48397;53.016;-2.260;2023-04-16T05:44:50;8.40;99.90
44671;DHT22;48397;53.016;-2.260;2023-04-16T05:49:46;8.40;99.90
44671;DHT22;48397;53.016;-2.260;2023-04-16T05:52:13;8.40;99.90
44671;DHT22;48397;53.016;-2.260;2023-04-16T05:54:41;8.40;99.90
44671;DHT22;48397;53.016;-2.260;2023-04-16T05:57:09;8.40;99.90
44671;DHT22;48397;53.016;-2.260;2023-04-16T06:02:05;8.50;99.90
44671;DHT22;48397;53.016;-2.260;2023-04-16T06:04:33;8.50;99.90
44671;DHT22;48397;53.016;-2.260;2023-04-16T06:07:02;8.60;99.90
44671;DHT22;48397;53.016;-2.260;2023-04-16T06:09:29;8.60;99.90
44671;DHT22;48397;53.016;-2.260;2023-04-16T06:11:57;8.70;99.90
44671;DHT22;48397;53.016;-2.260;2023-04-16T06:16:53;8.80;99.90
44671;DHT22;48397;53.016;-2.260;2023-04-16T06:19:21;8.80;99.90
44671;DHT22;48397;53.016;-2.260;2023-04-16T06:21:48;8.80;99.90
44671;DHT22;48397;53.016;-2.260;2023-04-16T06:26:44;8.90;99.90
44671;DHT22;48397;53.016;-2.260;2023-04-16T06:29:12;8.90;99.90
44671;DHT22;48397;53.016;-2.260;2023-04-16T06:31:39;9.00;99.90
44671;DHT22;48397;53.016;-2.260;2023-04-16T06:34:07;9.00;99.90
44671;DHT22;48397;53.016;-2.260;2023-04-16T06:36:35;9.10;99.90
44671;DHT22;48397;53.016;-2.260;2023-04-16T06:39:03;9.10;99.90
44671;DHT22;48397;53.016;-2.260;2023-04-16T06:41:31;9.10;99.90
44671;DHT22;48397;53.016;-2.260;2023-04-16T06:43:59;9.20;99.90
44671;DHT22;48397;53.016;-2.260;2023-04-16T06:46:26;9.20;99.90
44671;DHT22;48397;53.016;-2.260;2023-04-16T06:48:54;9.20;99.90
44671;DHT22;48397;53.016;-2.260;2023-04-16T06:51:22;9.20;99.90
44671;DHT22;48397;53.016;-2.260;2023-04-16T06:53:49;9.10;99.90
44671;DHT22;48397;53.016;-2.260;2023-04-16T06:58:45;9.10;99.90
44671;DHT22;48397;53.016;-2.260;2023-04-16T07:01:12;9.00;99.90
44671;DHT22;48397;53.016;-2.260;2023-04-16T07:03:40;9.00;99.90
44671;DHT22;48397;53.016;-2.260;2023-04-16T07:06:08;9.00;99.90
44671;DHT22;48397;53.016;-2.260;2023-04-16T07:08:35;8.90;99.90
44671;DHT22;48397;53.016;-2.260;2023-04-16T07:11:03;8.90;99.90
44671;DHT22;48397;53.016;-2.260;2023-04-16T07:13:31;8.90;99.90
44671;DHT22;48397;53.016;-2.260;2023-04-16T07:15:59;8.90;99.90
44671;DHT22;48397;53.016;-2.260;2023-04-16T07:18:26;8.90;99.90
44671;DHT22;48397;53.016;-2.260;2023-04-16T07:20:54;8.90;99.90
44671;DHT22;48397;53.016;-2.260;2023-04-16T07:23:22;8.90;99.90
44671;DHT22;48397;53.016;-2.260;2023-04-16T07:25:49;8.90;99.90
44671;DHT22;48397;53.016;-2.260;2023-04-16T07:28:16;9.00;99.90
44671;DHT22;48397;53.016;-2.260;2023-04-16T07:30:44;9.00;99.90
44671;DHT22;48397;53.016;-2.260;2023-04-16T07:33:12;9.00;99.90
44671;DHT22;48397;53.016;-2.260;2023-04-16T07:35:39;9.20;99.90
44671;DHT22;48397;53.016;-2.260;2023-04-16T07:38:07;9.20;99.90
44671;DHT22;48397;53.016;-2.260;2023-04-16T07:40:35;9.30;99.90
44671;DHT22;48397;53.016;-2.260;2023-04-16T07:43:03;9.30;99.90
44671;DHT22;48397;53.016;-2.260;2023-04-16T07:45:30;9.40;99.90
44671;DHT22;48397;53.016;-2.260;2023-04-16T07:47:58;9.40;99.90
44671;DHT22;48397;53.016;-2.260;2023-04-16T07:50:26;9.50;99.90
44671;DHT22;48397;53.016;-2.260;2023-04-16T07:52:53;9.50;99.90
44671;DHT22;48397;53.016;-2.260;2023-04-16T07:55:21;9.50;99.90
44671;DHT22;48397;53.016;-2.260;2023-04-16T07:57:49;9.50;99.90
44671;DHT22;48397;53.016;-2.260;2023-04-16T08:00:16;9.70;99.90
44671;DHT22;48397;53.016;-2.260;2023-04-16T08:05:12;9.70;99.90
44671;DHT22;48397;53.016;-2.260;2023-04-16T08:07:39;9.70;99.90
44671;DHT22;48397;53.016;-2.260;2023-04-16T08:10:07;9.70;99.90
44671;DHT22;48397;53.016;-2.260;2023-04-16T08:12:35;9.80;99.90
44671;DHT22;48397;53.016;-2.260;2023-04-16T08:15:03;9.80;99.90
44671;DHT22;48397;53.016;-2.260;2023-04-16T08:20:00;9.90;99.90
44671;DHT22;48397;53.016;-2.260;2023-04-16T08:22:28;9.90;99.90
44671;DHT22;48397;53.016;-2.260;2023-04-16T08:24:56;9.80;99.90
44671;DHT22;48397;53.016;-2.260;2023-04-16T08:27:23;9.70;99.90
44671;DHT22;48397;53.016;-2.260;2023-04-16T08:29:51;9.80;99.90
44671;DHT22;48397;53.016;-2.260;2023-04-16T08:32:19;9.80;99.90
44671;DHT22;48397;53.016;-2.260;2023-04-16T08:34:47;9.80;99.90
44671;DHT22;48397;53.016;-2.260;2023-04-16T08:37:14;9.80;99.90
44671;DHT22;48397;53.016;-2.260;2023-04-16T08:39:42;9.80;99.90
44671;DHT22;48397;53.016;-2.260;2023-04-16T08:42:33;9.80;99.90
44671;DHT22;48397;53.016;-2.260;2023-04-16T08:45:07;9.70;99.90
44671;DHT22;48397;53.016;-2.260;2023-04-16T08:47:35;9.80;99.90
44671;DHT22;48397;53.016;-2.260;2023-04-16T08:50:04;9.90;99.90
44671;DHT22;48397;53.016;-2.260;2023-04-16T08:52:33;9.90;99.90
44671;DHT22;48397;53.016;-2.260;2023-04-16T08:55:11;10.00;99.90
44671;DHT22;48397;53.016;-2.260;2023-04-16T08:57:46;10.10;99.90
44671;DHT22;48397;53.016;-2.260;2023-04-16T09:00:15;10.30;99.90
44671;DHT22;48397;53.016;-2.260;2023-04-16T09:02:43;10.30;99.90
44671;DHT22;48397;53.016;-2.260;2023-04-16T09:05:13;10.50;99.90
44671;DHT22;48397;53.016;-2.260;2023-04-16T09:07:47;10.50;99.90
44671;DHT22;48397;53.016;-2.260;2023-04-16T09:10:15;15.10;99.90
44671;DHT22;48397;53.016;-2.260;2023-04-16T09:12:43;10.60;99.90
44671;DHT22;48397;53.016;-2.260;2023-04-16T09:15:11;10.60;99.90
44671;DHT22;48397;53.016;-2.260;2023-04-16T09:17:39;10.70;99.90
44671;DHT22;48397;53.016;-2.260;2023-04-16T09:20:08;10.80;99.90
44671;DHT22;48397;53.016;-2.260;2023-04-16T09:22:38;10.90;99.90
44671;DHT22;48397;53.016;-2.260;2023-04-16T09:25:09;10.90;99.90
44671;DHT22;48397;53.016;-2.260;2023-04-16T09:27:37;11.00;99.90
44671;DHT22;48397;53.016;-2.260;2023-04-16T09:32:49;11.00;99.90
44671;DHT22;48397;53.016;-2.260;2023-04-16T09:35:20;10.90;99.90
44671;DHT22;48397;53.016;-2.260;2023-04-16T09:37:55;11.00;99.90
44671;DHT22;48397;53.016;-2.260;2023-04-16T09:40:24;11.00;99.90
44671;DHT22;48397;53.016;-2.260;2023-04-16T09:42:56;11.00;99.90
44671;DHT22;48397;53.016;-2.260;2023-04-16T09:45:24;11.00;99.90
44671;DHT22;48397;53.016;-2.260;2023-04-16T09:48:01;11.00;99.90
44671;DHT22;48397;53.016;-2.260;2023-04-16T09:53:00;10.90;99.90
44671;DHT22;48397;53.016;-2.260;2023-04-16T09:55:29;10.90;99.90
44671;DHT22;48397;53.016;-2.260;2023-04-16T09:58:00;10.80;99.90
44671;DHT22;48397;53.016;-2.260;2023-04-16T10:00:29;10.70;99.90
44671;DHT22;48397;53.016;-2.260;2023-04-16T10:03:05;10.60;99.90
44671;DHT22;48397;53.016;-2.260;2023-04-16T10:05:34;10.60;99.90
44671;DHT22;48397;53.016;-2.260;2023-04-16T10:08:02;10.50;99.90
44671;DHT22;48397;53.016;-2.260;2023-04-16T10:10:29;10.50;99.90
44671;DHT22;48397;53.016;-2.260;2023-04-16T10:12:58;10.50;99.90
44671;DHT22;48397;53.016;-2.260;2023-04-16T10:15:26;10.50;99.90
44671;DHT22;48397;53.016;-2.260;2023-04-16T10:17:54;10.40;99.90
44671;DHT22;48397;53.016;-2.260;2023-04-16T10:20:25;10.50;99.90
44671;DHT22;48397;53.016;-2.260;2023-04-16T10:22:53;10.60;99.90
44671;DHT22;48397;53.016;-2.260;2023-04-16T10:25:21;10.70;99.90
44671;DHT22;48397;53.016;-2.260;2023-04-16T10:30:17;10.90;99.90
44671;DHT22;48397;53.016;-2.260;2023-04-16T10:32:46;11.10;99.90
44671;DHT22;48397;53.016;-2.260;2023-04-16T10:35:14;11.10;99.90
44671;DHT22;48397;53.016;-2.260;2023-04-16T10:37:43;11.50;99.90
44671;DHT22;48397;53.016;-2.260;2023-04-16T10:40:23;11.70;99.90
44671;DHT22;48397;53.016;-2.260;2023-04-16T10:42:57;11.80;99.90
44671;DHT22;48397;53.016;-2.260;2023-04-16T10:45:36;11.90;99.90
44671;DHT22;48397;53.016;-2.260;2023-04-16T10:48:05;11.90;99.90
44671;DHT22;48397;53.016;-2.260;2023-04-16T10:50:36;11.90;99.90
44671;DHT22;48397;53.016;-2.260;2023-04-16T10:53:30;11.90;99.90
44671;DHT22;48397;53.016;-2.260;2023-04-16T10:58:35;12.00;99.90
44671;DHT22;48397;53.016;-2.260;2023-04-16T11:01:12;12.00;99.90
44671;DHT22;48397;53.016;-2.260;2023-04-16T11:03:42;12.00;99.90
44671;DHT22;48397;53.016;-2.260;2023-04-16T11:06:15;12.10;99.90
44671;DHT22;48397;53.016;-2.260;2023-04-16T11:08:44;12.10;99.90
44671;DHT22;48397;53.016;-2.260;2023-04-16T11:11:15;12.20;99.90
44671;DHT22;48397;53.016;-2.260;2023-04-16T11:13:45;12.30;99.90
44671;DHT22;48397;53.016;-2.260;2023-04-16T11:16:13;12.20;99.90
44671;DHT22;48397;53.016;-2.260;2023-04-16T11:18:44;12.10;99.90
44671;DHT22;48397;53.016;-2.260;2023-04-16T11:21:18;12.10;99.90
44671;DHT22;48397;53.016;-2.260;2023-04-16T11:23:51;12.20;99.90
44671;DHT22;48397;53.016;-2.260;2023-04-16T11:26:28;12.10;99.90
44671;DHT22;48397;53.016;-2.260;2023-04-16T11:28:57;12.30;99.90
44671;DHT22;48397;53.016;-2.260;2023-04-16T11:31:26;12.40;99.90
44671;DHT22;48397;53.016;-2.260;2023-04-16T11:33:55;12.30;99.90
44671;DHT22;48397;53.016;-2.260;2023-04-16T11:36:23;12.40;99.90
44671;DHT22;48397;53.016;-2.260;2023-04-16T11:39:00;12.50;99.90
44671;DHT22;48397;53.016;-2.260;2023-04-16T11:41:29;12.40;99.90
44671;DHT22;48397;53.016;-2.260;2023-04-16T11:43:56;12.40;99.90
44671;DHT22;48397;53.016;-2.260;2023-04-16T11:46:37;12.50;99.90
44671;DHT22;48397;53.016;-2.260;2023-04-16T11:49:04;12.50;99.90
44671;DHT22;48397;53.016;-2.260;2023-04-16T11:51:32;12.60;99.90
44671;DHT22;48397;53.016;-2.260;2023-04-16T11:54:05;12.80;99.90
44671;DHT22;48397;53.016;-2.260;2023-04-16T11:56:45;12.90;99.90
44671;DHT22;48397;53.016;-2.260;2023-04-16T11:59:16;12.90;99.90
44671;DHT22;48397;53.016;-2.260;2023-04-16T12:01:51;12.90;99.90
44671;DHT22;48397;53.016;-2.260;2023-04-16T12:04:24;12.90;99.90
44671;DHT22;48397;53.016;-2.260;2023-04-16T12:07:13;12.90;99.90
44671;DHT22;48397;53.016;-2.260;2023-04-16T12:09:42;12.80;99.90
44671;DHT22;48397;53.016;-2.260;2023-04-16T12:12:29;12.80;99.90
44671;DHT22;48397;53.016;-2.260;2023-04-16T12:15:00;12.80;99.90
44671;DHT22;48397;53.016;-2.260;2023-04-16T12:17:31;12.80;99.90
44671;DHT22;48397;53.016;-2.260;2023-04-16T12:20:07;12.80;99.90
44671;DHT22;48397;53.016;-2.260;2023-04-16T12:22:38;12.80;99.90
44671;DHT22;48397;53.016;-2.260;2023-04-16T12:25:10;12.90;99.90
44671;DHT22;48397;53.016;-2.260;2023-04-16T12:27:49;12.90;99.90
44671;DHT22;48397;53.016;-2.260;2023-04-16T12:30:22;14.50;99.90
44671;DHT22;48397;53.016;-2.260;2023-04-16T12:35:38;13.20;99.90
44671;DHT22;48397;53.016;-2.260;2023-04-16T12:38:06;13.20;99.90
44671;DHT22;48397;53.016;-2.260;2023-04-16T12:40:33;13.20;99.90
44671;DHT22;48397;53.016;-2.260;2023-04-16T12:43:02;13.30;99.90
44671;DHT22;48397;53.016;-2.260;2023-04-16T12:45:30;13.50;99.90
44671;DHT22;48397;53.016;-2.260;2023-04-16T12:47:58;13.50;99.90
44671;DHT22;48397;53.016;-2.260;2023-04-16T12:50:26;14.00;99.90
44671;DHT22;48397;53.016;-2.260;2023-04-16T12:52:55;14.00;99.90
44671;DHT22;48397;53.016;-2.260;2023-04-16T12:55:24;13.90;99.90
44671;DHT22;48397;53.016;-2.260;2023-04-16T12:57:52;13.90;99.90
44671;DHT22;48397;53.016;-2.260;2023-04-16T13:00:20;13.80;99.90
44671;DHT22;48397;53.016;-2.260;2023-04-16T13:02:48;13.90;99.90
44671;DHT22;48397;53.016;-2.260;2023-04-16T13:05:16;13.90;99.90
44671;DHT22;48397;53.016;-2.260;2023-04-16T13:07:45;14.00;99.90
44671;DHT22;48397;53.016;-2.260;2023-04-16T13:10:13;14.10;99.90
44671;DHT22;48397;53.016;-2.260;2023-04-16T13:12:41;14.20;99.90
44671;DHT22;48397;53.016;-2.260;2023-04-16T13:15:09;14.10;99.90
44671;DHT22;48397;53.016;-2.260;2023-04-16T13:17:36;10.40;99.90
44671;DHT22;48397;53.016;-2.260;2023-04-16T13:20:04;13.80;99.90
44671;DHT22;48397;53.016;-2.260;2023-04-16T13:22:32;13.70;99.90
44671;DHT22;48397;53.016;-2.260;2023-04-16T13:25:00;13.50;99.90
44671;DHT22;48397;53.016;-2.260;2023-04-16T13:27:27;13.50;99.90
44671;DHT22;48397;53.016;-2.260;2023-04-16T13:29:55;13.50;99.90
44671;DHT22;48397;53.016;-2.260;2023-04-16T13:32:23;13.50;99.90
44671;DHT22;48397;53.016;-2.260;2023-04-16T13:34:50;13.70;99.90
44671;DHT22;48397;53.016;-2.260;2023-04-16T13:37:18;13.80;99.90
44671;DHT22;48397;53.016;-2.260;2023-04-16T13:39:46;13.90;99.90
44671;DHT22;48397;53.016;-2.260;2023-04-16T13:42:13;13.90;99.90
44671;DHT22;48397;53.016;-2.260;2023-04-16T13:44:41;13.80;99.90
44671;DHT22;48397;53.016;-2.260;2023-04-16T13:47:09;13.80;99.90
44671;DHT22;48397;53.016;-2.260;2023-04-16T13:49:37;13.80;99.90
44671;DHT22;48397;53.016;-2.260;2023-04-16T13:52:05;13.70;99.90
44671;DHT22;48397;53.016;-2.260;2023-04-16T13:54:32;13.70;99.90
44671;DHT22;48397;53.016;-2.260;2023-04-16T13:57:00;13.70;99.90
44671;DHT22;48397;53.016;-2.260;2023-04-16T14:01:56;13.60;99.90
44671;DHT22;48397;53.016;-2.260;2023-04-16T14:04:24;13.50;99.90
44671;DHT22;48397;53.016;-2.260;2023-04-16T14:06:52;13.60;99.90
44671;DHT22;48397;53.016;-2.260;2023-04-16T14:09:19;13.50;99.90
44671;DHT22;48397;53.016;-2.260;2023-04-16T14:14:15;13.60;99.90
44671;DHT22;48397;53.016;-2.260;2023-04-16T14:16:42;13.70;99.90
44671;DHT22;48397;53.016;-2.260;2023-04-16T14:19:10;13.70;99.90
44671;DHT22;48397;53.016;-2.260;2023-04-16T14:21:39;13.70;99.90
44671;DHT22;48397;53.016;-2.260;2023-04-16T14:24:07;13.70;99.90
44671;DHT22;48397;53.016;-2.260;2023-04-16T14:26:35;13.80;99.90
44671;DHT22;48397;53.016;-2.260;2023-04-16T14:29:03;13.80;99.90
44671;DHT22;48397;53.016;-2.260;2023-04-16T14:31:31;13.80;99.90
44671;DHT22;48397;53.016;-2.260;2023-04-16T14:34:00;13.70;99.90
44671;DHT22;48397;53.016;-2.260;2023-04-16T14:36:28;13.80;99.90
44671;DHT22;48397;53.016;-2.260;2023-04-16T14:38:57;13.70;99.90
44671;DHT22;48397;53.016;-2.260;2023-04-16T14:41:24;13.60;99.90
44671;DHT22;48397;53.016;-2.260;2023-04-16T14:43:52;13.50;99.90
44671;DHT22;48397;53.016;-2.260;2023-04-16T14:46:20;13.50;99.90
44671;DHT22;48397;53.016;-2.260;2023-04-16T14:48:47;13.50;99.90
44671;DHT22;48397;53.016;-2.260;2023-04-16T14:51:15;13.50;99.90
44671;DHT22;48397;53.016;-2.260;2023-04-16T14:53:43;13.50;99.90
44671;DHT22;48397;53.016;-2.260;2023-04-16T14:56:10;13.50;99.90
44671;DHT22;48397;53.016;-2.260;2023-04-16T14:58:39;13.50;99.90
44671;DHT22;48397;53.016;-2.260;2023-04-16T15:01:09;13.50;99.90
44671;DHT22;48397;53.016;-2.260;2023-04-16T15:03:36;13.60;99.90
44671;DHT22;48397;53.016;-2.260;2023-04-16T15:06:05;13.60;99.90
44671;DHT22;48397;53.016;-2.260;2023-04-16T15:08:35;13.60;99.90
44671;DHT22;48397;53.016;-2.260;2023-04-16T15:11:02;13.60;99.90
44671;DHT22;48397;53.016;-2.260;2023-04-16T15:13:30;13.70;99.90
44671;DHT22;48397;53.016;-2.260;2023-04-16T15:16:01;13.70;99.90
44671;DHT22;48397;53.016;-2.260;2023-04-16T15:18:28;13.70;99.90
44671;DHT22;48397;53.016;-2.260;2023-04-16T15:20:56;13.80;99.90
44671;DHT22;48397;53.016;-2.260;2023-04-16T15:23:24;13.80;99.90
44671;DHT22;48397;53.016;-2.260;2023-04-16T15:25:52;13.80;99.90
44671;DHT22;48397;53.016;-2.260;2023-04-16T15:28:19;13.70;99.90
44671;DHT22;48397;53.016;-2.260;2023-04-16T15:30:47;13.60;99.90
44671;DHT22;48397;53.016;-2.260;2023-04-16T15:33:15;13.60;99.90
44671;DHT22;48397;53.016;-2.260;2023-04-16T15:35:42;13.60;99.90
44671;DHT22;48397;53.016;-2.260;2023-04-16T15:38:10;13.70;99.90
44671;DHT22;48397;53.016;-2.260;2023-04-16T15:40:38;13.80;99.90
44671;DHT22;48397;53.016;-2.260;2023-04-16T15:43:06;13.80;99.90
44671;DHT22;48397;53.016;-2.260;2023-04-16T15:45:33;13.80;99.90
44671;DHT22;48397;53.016;-2.260;2023-04-16T15:48:01;13.80;99.90
44671;DHT22;48397;53.016;-2.260;2023-04-16T15:50:33;13.20;99.90
44671;DHT22;48397;53.016;-2.260;2023-04-16T15:53:01;13.90;99.90
44671;DHT22;48397;53.016;-2.260;2023-04-16T15:55:29;13.90;99.90
44671;DHT22;48397;53.016;-2.260;2023-04-16T15:57:57;14.00;99.90
44671;DHT22;48397;53.016;-2.260;2023-04-16T16:00:25;14.00;99.90
44671;DHT22;48397;53.016;-2.260;2023-04-16T16:02:53;14.10;99.90
44671;DHT22;48397;53.016;-2.260;2023-04-16T16:05:21;14.10;99.90
44671;DHT22;48397;53.016;-2.260;2023-04-16T16:07:49;14.20;99.90
44671;DHT22;48397;53.016;-2.260;2023-04-16T16:10:17;14.10;99.90
44671;DHT22;48397;53.016;-2.260;2023-04-16T16:12:46;14.00;99.90
44671;DHT22;48397;53.016;-2.260;2023-04-16T16:15:14;14.00;99.90
44671;DHT22;48397;53.016;-2.260;2023-04-16T16:17:42;12.00;99.90
44671;DHT22;48397;53.016;-2.260;2023-04-16T16:20:10;16.30;99.90
44671;DHT22;48397;53.016;-2.260;2023-04-16T16:25:08;13.80;99.90
44671;DHT22;48397;53.016;-2.260;2023-04-16T16:27:36;13.80;99.90
44671;DHT22;48397;53.016;-2.260;2023-04-16T16:30:04;13.70;99.90
44671;DHT22;48397;53.016;-2.260;2023-04-16T16:32:33;13.60;99.90
44671;DHT22;48397;53.016;-2.260;2023-04-16T16:35:01;13.50;99.90
44671;DHT22;48397;53.016;-2.260;2023-04-16T16:37:29;13.40;99.90
44671;DHT22;48397;53.016;-2.260;2023-04-16T16:39:57;13.30;99.90
44671;DHT22;48397;53.016;-2.260;2023-04-16T16:42:24;13.30;99.90